createdAt,value
2022-09-11T00:00:54.492Z,99614.06
2022-09-11T00:02:26.444Z,99602.78
2022-09-11T00:07:11.623Z,99614.63
2022-09-11T00:08:44.083Z,99612.94
2022-09-11T00:10:16.820Z,99611.56
2022-09-11T00:11:48.835Z,99608.19
2022-09-11T00:13:22.764Z,99599.91
2022-09-11T00:14:54.759Z,99614.44
2022-09-11T00:23:18.494Z,99601.31
2022-09-11T00:24:50.546Z,99593.25
2022-09-11T00:26:22.948Z,99609.47
2022-09-11T00:27:56.250Z,99612.31
2022-09-11T00:29:28.089Z,99618.13
2022-09-11T00:31:09.164Z,99609.59
2022-09-11T00:32:41.497Z,99612.59
2022-09-11T00:34:13.449Z,99610.88
2022-09-11T00:35:54.854Z,99608.19
2022-09-11T00:37:26.792Z,99606.75
2022-09-11T00:38:59.452Z,99611.94
2022-09-11T00:40:31.534Z,99613.72
2022-09-11T00:42:03.866Z,99600.00
2022-09-11T00:48:50.256Z,99603.84
2022-09-11T00:50:25.391Z,99605.72
2022-09-11T00:52:24.336Z,99606.00
2022-09-11T00:53:57.374Z,99607.13
2022-09-11T00:55:32.570Z,99612.38
2022-09-11T00:57:07.209Z,99601.13
2022-09-11T01:09:06.735Z,99599.34
2022-09-11T01:10:56.726Z,99604.69
2022-09-11T01:12:43.876Z,99596.06
2022-09-11T01:14:53.820Z,99592.75
2022-09-11T01:16:35.190Z,99594.72
2022-09-11T01:18:31.905Z,99596.72
2022-09-11T01:20:25.139Z,99598.66
2022-09-11T01:22:12.244Z,99601.38
2022-09-11T01:24:15.639Z,99599.69
2022-09-11T01:25:59.297Z,99602.50
2022-09-11T01:27:41.374Z,99598.19
2022-09-11T01:29:18.760Z,99596.47
2022-09-11T01:32:56.183Z,99592.34
2022-09-11T01:34:48.671Z,99590.75
2022-09-11T01:36:29.196Z,99591.78
2022-09-11T01:38:05.666Z,99593.66
2022-09-11T01:39:42.672Z,99587.56
2022-09-11T01:41:19.159Z,99591.88
2022-09-11T01:42:53.665Z,99591.38
2022-09-11T01:44:32.660Z,99592.13
2022-09-11T01:46:07.632Z,99591.38
2022-09-11T01:47:40.922Z,99589.00
2022-09-11T01:49:42.784Z,99588.25
2022-09-11T01:51:21.488Z,99581.56
2022-09-11T01:52:58.418Z,99581.66
2022-09-11T01:54:34.444Z,99582.69
2022-09-11T01:56:10.771Z,99581.00
2022-09-11T01:57:45.867Z,99582.00
2022-09-11T01:59:21.936Z,99581.25
2022-09-11T02:00:59.382Z,99578.81
2022-09-11T02:02:39.357Z,99583.31
2022-09-11T02:04:16.425Z,99580.84
2022-09-11T02:05:54.146Z,99575.88
2022-09-11T02:07:30.469Z,99575.22
2022-09-11T02:09:07.087Z,99578.97
2022-09-11T02:10:54.860Z,99579.13
2022-09-11T02:12:33.183Z,99578.34
2022-09-11T02:14:14.004Z,99570.69
2022-09-11T02:15:50.796Z,99581.31
2022-09-11T02:17:48.574Z,99578.91
2022-09-11T02:19:25.295Z,99579.88
2022-09-11T02:20:57.517Z,99572.28
2022-09-11T02:22:30.532Z,99569.75
2022-09-11T02:24:02.884Z,99568.16
2022-09-11T02:25:34.906Z,99576.00
2022-09-11T02:27:10.275Z,99571.53
2022-09-11T02:28:42.297Z,99576.97
2022-09-11T02:30:15.246Z,99564.94
2022-09-11T02:31:47.308Z,99569.25
2022-09-11T02:33:34.080Z,99578.63
2022-09-11T02:35:07.323Z,99570.28
2022-09-11T02:37:03.608Z,99583.47
2022-09-11T02:38:58.635Z,99579.25
2022-09-11T02:40:49.060Z,99585.44
2022-09-11T02:42:51.615Z,99581.19
2022-09-11T02:44:40.546Z,99581.38
2022-09-11T02:46:15.383Z,99584.91
2022-09-11T02:47:47.425Z,99589.56
2022-09-11T02:49:59.421Z,99587.69
2022-09-11T02:51:43.515Z,99581.50
2022-09-11T02:53:18.641Z,99586.16
2022-09-11T02:54:59.510Z,99582.06
2022-09-11T02:56:45.390Z,99581.31
2022-09-11T02:58:37.426Z,99582.16
2022-09-11T03:00:10.530Z,99580.81
2022-09-11T03:01:55.578Z,99575.75
2022-09-11T03:03:27.734Z,99570.06
2022-09-11T03:04:59.711Z,99578.16
2022-09-11T03:06:31.682Z,99581.78
2022-09-11T03:08:04.721Z,99573.34
2022-09-11T03:09:36.652Z,99575.03
2022-09-11T03:11:11.260Z,99583.66
2022-09-11T03:12:43.270Z,99579.34
2022-09-11T03:14:15.379Z,99586.28
2022-09-11T03:15:47.981Z,99589.16
2022-09-11T03:17:20.363Z,99580.53
2022-09-11T03:18:52.350Z,99587.59
2022-09-11T03:20:24.349Z,99584.31
2022-09-11T03:21:56.424Z,99593.25
2022-09-11T03:23:28.662Z,99599.44
2022-09-11T03:25:00.704Z,99597.72
2022-09-11T03:26:33.973Z,99590.03
2022-09-11T03:28:05.888Z,99595.19
2022-09-11T03:29:38.129Z,99598.91
2022-09-11T03:31:10.869Z,99605.13
2022-09-11T03:32:42.896Z,99607.16
2022-09-11T03:34:15.088Z,99610.78
2022-09-11T03:35:47.594Z,99608.06
2022-09-11T03:37:19.566Z,99615.00
2022-09-11T03:38:52.983Z,99621.16
2022-09-11T03:40:24.999Z,99614.25
2022-09-11T03:41:57.066Z,99611.69
2022-09-11T03:43:29.765Z,99614.56
2022-09-11T03:45:01.850Z,99619.88
2022-09-11T03:46:33.998Z,99608.72
2022-09-11T03:48:06.941Z,99612.19
2022-09-11T03:49:39.531Z,99612.41
2022-09-11T03:51:11.556Z,99616.72
2022-09-11T03:52:44.002Z,99619.34
2022-09-11T03:54:17.968Z,99616.88
2022-09-11T03:55:52.601Z,99617.78
2022-09-11T03:57:24.594Z,99623.28
2022-09-11T03:59:00.537Z,99630.19
2022-09-11T04:00:36.712Z,99630.41
2022-09-11T04:02:12.965Z,99606.38
2022-09-11T04:03:45.086Z,99632.91
2022-09-11T04:05:18.160Z,99632.13
2022-09-11T04:06:50.290Z,99631.25
2022-09-11T04:08:22.590Z,99629.66
2022-09-11T04:09:54.576Z,99633.28
2022-09-11T04:11:26.539Z,99635.16
2022-09-11T04:12:58.519Z,99632.63
2022-09-11T04:14:30.526Z,99634.31
2022-09-11T04:16:05.468Z,99636.81
2022-09-11T04:17:37.543Z,99637.72
2022-09-11T04:19:10.641Z,99636.72
2022-09-11T04:20:42.708Z,99637.69
2022-09-11T04:22:14.687Z,99640.28
2022-09-11T04:23:52.334Z,99639.13
2022-09-11T04:25:24.521Z,99634.88
2022-09-11T04:27:00.608Z,99634.88
2022-09-11T04:28:32.982Z,99643.69
2022-09-11T04:30:06.448Z,99640.13
2022-09-11T04:31:38.711Z,99636.81
2022-09-11T04:33:10.690Z,99643.94
2022-09-11T04:34:42.756Z,99641.41
2022-09-11T04:36:19.421Z,99645.63
2022-09-11T04:37:51.429Z,99642.41
2022-09-11T04:39:23.580Z,99640.56
2022-09-11T04:40:55.570Z,99641.22
2022-09-11T04:42:27.543Z,99638.59
2022-09-11T04:44:04.816Z,99648.03
2022-09-11T04:45:37.652Z,99645.34
2022-09-11T04:47:09.663Z,99638.13
2022-09-11T04:48:45.713Z,99641.28
2022-09-11T04:50:17.813Z,99641.44
2022-09-11T04:51:50.238Z,99638.44
2022-09-11T04:53:22.180Z,99635.75
2022-09-11T04:54:54.422Z,99639.91
2022-09-11T04:56:31.197Z,99637.03
2022-09-11T04:58:03.896Z,99641.97
2022-09-11T04:59:36.166Z,99639.94
2022-09-11T05:01:15.572Z,99643.00
2022-09-11T05:02:48.033Z,99638.78
2022-09-11T05:04:24.080Z,99641.34
2022-09-11T05:05:57.896Z,99641.94
2022-09-11T05:09:10.769Z,99643.91
2022-09-11T05:10:42.775Z,99642.81
2022-09-11T05:12:15.012Z,99639.03
2022-09-11T05:13:47.111Z,99642.19
2022-09-11T05:15:19.797Z,99636.53
2022-09-11T05:16:53.347Z,99639.66
2022-09-11T05:18:26.245Z,99641.81
2022-09-11T05:19:59.299Z,99637.94
2022-09-11T05:21:32.297Z,99638.44
2022-09-11T05:23:04.250Z,99645.97
2022-09-11T05:24:36.225Z,99642.94
2022-09-11T05:26:14.676Z,99641.41
2022-09-11T05:27:46.732Z,99642.84
2022-09-11T05:29:19.925Z,99641.66
2022-09-11T05:30:53.148Z,99635.88
2022-09-11T05:32:25.126Z,99633.75
2022-09-11T05:33:57.591Z,99633.50
2022-09-11T05:35:32.382Z,99633.31
2022-09-11T05:37:05.714Z,99634.00
2022-09-11T05:38:38.000Z,99638.13
2022-09-11T05:40:10.729Z,99639.66
2022-09-11T05:41:43.432Z,99635.16
2022-09-11T05:43:20.003Z,99634.84
2022-09-11T05:44:52.593Z,99635.66
2022-09-11T05:46:26.115Z,99634.63
2022-09-11T05:47:58.197Z,99629.22
2022-09-11T05:49:30.258Z,99633.53
2022-09-11T05:51:04.013Z,99627.34
2022-09-11T05:52:36.084Z,99628.00
2022-09-11T05:54:08.564Z,99632.25
2022-09-11T05:55:40.546Z,99634.69
2022-09-11T05:57:12.588Z,99637.16
2022-09-11T05:58:46.673Z,99641.38
2022-09-11T06:00:19.158Z,99636.88
2022-09-11T06:01:51.554Z,99643.72
2022-09-11T06:03:24.018Z,99640.88
2022-09-11T06:04:59.007Z,99637.25
2022-09-11T06:06:32.286Z,99644.19
2022-09-11T06:08:05.302Z,99642.22
2022-09-11T06:09:40.487Z,99644.66
2022-09-11T06:11:20.293Z,99647.19
2022-09-11T06:12:52.536Z,99648.03
2022-09-11T06:14:25.598Z,99645.41
2022-09-11T06:15:57.905Z,99644.50
2022-09-11T06:17:30.424Z,99646.28
2022-09-11T06:19:05.204Z,99642.78
2022-09-11T06:20:37.539Z,99639.41
2022-09-11T06:22:10.447Z,99637.53
2022-09-11T06:23:42.874Z,99642.69
2022-09-11T06:25:15.316Z,99646.84
2022-09-11T06:26:47.516Z,99642.34
2022-09-11T06:28:19.508Z,99646.75
2022-09-11T06:29:52.068Z,99638.78
2022-09-11T06:31:26.359Z,99645.44
2022-09-11T06:32:59.572Z,99643.75
2022-09-11T06:34:32.334Z,99644.03
2022-09-11T06:36:07.339Z,99650.16
2022-09-11T06:37:39.738Z,99645.72
2022-09-11T06:39:12.155Z,99645.53
2022-09-11T06:40:44.557Z,99651.44
2022-09-11T06:42:17.064Z,99650.31
2022-09-11T06:43:50.631Z,99640.56
2022-09-11T06:45:22.931Z,99645.34
2022-09-11T06:46:55.423Z,99640.69
2022-09-11T06:48:27.646Z,99653.28
2022-09-11T06:49:59.964Z,99646.59
2022-09-11T06:51:32.364Z,99646.13
2022-09-11T06:53:04.716Z,99647.31
2022-09-11T06:54:36.714Z,99651.13
2022-09-11T06:56:13.362Z,99643.38
2022-09-11T06:57:45.461Z,99643.13
2022-09-11T06:59:17.686Z,99639.88
2022-09-11T07:00:49.786Z,99642.03
2022-09-11T07:02:22.257Z,99634.66
2022-09-11T07:03:55.477Z,99634.28
2022-09-11T07:05:27.777Z,99634.94
2022-09-11T07:06:59.939Z,99637.78
2022-09-11T07:08:31.926Z,99638.25
2022-09-11T07:10:05.449Z,99636.13
2022-09-11T07:11:38.797Z,99634.88
2022-09-11T07:13:10.888Z,99641.31
2022-09-11T07:14:43.086Z,99645.34
2022-09-11T07:16:16.893Z,99638.69
2022-09-11T07:17:49.364Z,99640.19
2022-09-11T07:19:22.789Z,99646.81
2022-09-11T07:20:56.176Z,99645.25
2022-09-11T07:22:29.848Z,99648.09
2022-09-11T07:24:02.314Z,99656.00
2022-09-11T07:25:38.711Z,99649.25
2022-09-11T07:27:14.308Z,99649.06
2022-09-11T07:28:49.252Z,99651.38
2022-09-11T07:30:22.377Z,99650.97
2022-09-11T07:31:57.642Z,99646.97
2022-09-11T07:33:29.991Z,99645.91
2022-09-11T07:35:03.594Z,99645.66
2022-09-11T07:36:37.966Z,99644.50
2022-09-11T07:38:10.319Z,99644.19
2022-09-11T07:39:42.426Z,99650.00
2022-09-11T07:41:15.853Z,99648.59
2022-09-11T07:42:47.834Z,99652.81
2022-09-11T07:44:21.049Z,99648.16
2022-09-11T07:45:53.823Z,99660.47
2022-09-11T07:47:25.954Z,99653.72
2022-09-11T07:48:59.075Z,99652.56
2022-09-11T07:50:31.635Z,99655.00
2022-09-11T07:52:04.222Z,99650.66
2022-09-11T07:53:45.062Z,99647.56
2022-09-11T07:55:17.605Z,99645.66
2022-09-11T07:56:50.408Z,99650.94
2022-09-11T07:58:22.800Z,99642.69
2022-09-11T07:59:55.289Z,99642.41
2022-09-11T08:01:30.061Z,99635.81
2022-09-11T08:03:02.450Z,99633.41
2022-09-11T08:04:37.406Z,99637.38
2022-09-11T08:06:20.135Z,99632.63
2022-09-11T08:07:54.309Z,99637.56
2022-09-11T08:09:27.817Z,99632.66
2022-09-11T08:11:05.801Z,99632.84
2022-09-11T08:12:38.383Z,99625.16
2022-09-11T08:14:12.107Z,99633.47
2022-09-11T08:15:51.452Z,99631.59
2022-09-11T08:17:23.802Z,99637.84
2022-09-11T08:18:57.341Z,99626.81
2022-09-11T08:20:29.726Z,99622.00
2022-09-11T08:22:02.040Z,99614.69
2022-09-11T08:23:35.167Z,99618.69
2022-09-11T08:25:10.218Z,99617.38
2022-09-11T08:26:46.806Z,99623.50
2022-09-11T08:28:20.993Z,99619.69
2022-09-11T08:29:54.450Z,99614.16
2022-09-11T08:31:27.703Z,99620.78
2022-09-11T08:33:02.040Z,99612.00
2022-09-11T08:34:34.474Z,99617.06
2022-09-11T08:36:09.777Z,99619.97
2022-09-11T08:37:42.217Z,99615.97
2022-09-11T08:39:14.536Z,99623.81
2022-09-11T08:40:47.819Z,99620.56
2022-09-11T08:42:20.474Z,99621.66
2022-09-11T08:44:12.861Z,99618.88
2022-09-11T08:45:45.510Z,99607.09
2022-09-11T08:47:22.877Z,99607.72
2022-09-11T08:49:07.460Z,99608.19
2022-09-11T08:50:44.235Z,99605.31
2022-09-11T08:52:17.283Z,99606.75
2022-09-11T08:53:50.236Z,99603.63
2022-09-11T08:55:33.465Z,99603.00
2022-09-11T08:57:35.652Z,99596.41
2022-09-11T08:59:23.303Z,99601.31
2022-09-11T09:01:04.530Z,99593.28
2022-09-11T09:02:39.925Z,99595.69
2022-09-11T09:04:46.371Z,99589.69
2022-09-11T09:06:45.656Z,99588.34
2022-09-11T09:08:23.861Z,99585.81
2022-09-11T09:10:15.823Z,99588.81
2022-09-11T09:12:07.595Z,99584.63
2022-09-11T09:13:46.447Z,99582.19
2022-09-11T09:15:28.776Z,99576.44
2022-09-11T09:17:08.074Z,99578.97
2022-09-11T09:19:17.178Z,99582.19
2022-09-11T09:21:20.973Z,99573.31
2022-09-11T09:22:59.941Z,99573.03
2022-09-11T09:24:37.503Z,99568.22
2022-09-11T09:26:17.625Z,99571.22
2022-09-11T09:28:09.503Z,99579.75
2022-09-11T09:29:42.497Z,99564.94
2022-09-11T09:31:23.957Z,99568.69
2022-09-11T09:33:05.063Z,99563.50
2022-09-11T09:34:39.280Z,99574.25
2022-09-11T09:36:26.732Z,99559.56
2022-09-11T09:38:00.199Z,99558.13
2022-09-11T09:39:32.883Z,99563.44
2022-09-11T09:41:36.865Z,99560.41
2022-09-11T09:43:19.768Z,99567.25
2022-09-11T09:45:20.773Z,99560.63
2022-09-11T09:46:54.036Z,99556.16
2022-09-11T09:49:59.226Z,99540.66
2022-09-11T09:51:31.438Z,99551.69
2022-09-11T09:53:16.889Z,99542.91
2022-09-11T09:55:01.808Z,99538.50
2022-09-11T09:56:38.072Z,99535.22
2022-09-11T09:58:10.719Z,99531.75
2022-09-11T09:59:48.382Z,99537.75
2022-09-11T10:01:50.586Z,99536.66
2022-09-11T10:03:29.507Z,99535.44
2022-09-11T10:05:14.505Z,99530.63
2022-09-11T10:06:50.744Z,99532.63
2022-09-11T10:08:38.508Z,99534.81
2022-09-11T10:10:28.661Z,99534.75
2022-09-11T10:12:03.558Z,99533.38
2022-09-11T10:13:39.226Z,99528.38
2022-09-11T10:15:19.630Z,99529.09
2022-09-11T10:18:43.229Z,99533.09
2022-09-11T10:20:27.308Z,99533.31
2022-09-11T10:22:15.481Z,99530.50
2022-09-11T10:23:50.651Z,99519.44
2022-09-11T10:25:27.525Z,99524.84
2022-09-11T10:26:59.950Z,99526.94
2022-09-11T10:28:34.304Z,99522.22
2022-09-11T10:30:13.495Z,99514.38
2022-09-11T10:31:55.264Z,99511.09
2022-09-11T10:33:33.426Z,99510.69
2022-09-11T10:35:09.986Z,99515.19
2022-09-11T10:37:04.241Z,99501.25
2022-09-11T10:38:45.628Z,99512.72
2022-09-11T10:40:22.681Z,99494.03
2022-09-11T10:41:59.378Z,99500.31
2022-09-11T10:43:56.524Z,99501.03
2022-09-11T10:45:28.825Z,99497.78
2022-09-11T10:47:19.239Z,99495.13
2022-09-11T10:49:11.666Z,99500.69
2022-09-11T10:50:45.318Z,99492.91
2022-09-11T10:52:20.025Z,99489.53
2022-09-11T10:54:14.269Z,99478.09
2022-09-11T10:56:06.557Z,99483.13
2022-09-11T10:57:50.804Z,99495.31
2022-09-11T10:59:27.451Z,99485.88
2022-09-11T11:01:03.116Z,99494.38
2022-09-11T11:02:39.264Z,99485.41
2022-09-11T11:04:13.177Z,99492.78
2022-09-11T11:06:07.579Z,99496.00
2022-09-11T11:08:08.722Z,99488.88
2022-09-11T11:09:57.983Z,99490.75
2022-09-11T11:12:09.500Z,99491.84
2022-09-11T11:14:18.434Z,99489.91
2022-09-11T11:20:27.183Z,99480.25
2022-09-11T11:22:17.976Z,99478.59
2022-09-11T11:24:00.633Z,99477.34
2022-09-11T11:25:44.850Z,99479.44
2022-09-11T11:27:47.424Z,99481.78
2022-09-11T11:29:34.166Z,99477.19
2022-09-11T11:31:44.472Z,99472.84
2022-09-11T11:33:17.761Z,99471.31
2022-09-11T11:35:05.196Z,99465.56
2022-09-11T11:37:09.589Z,99467.41
2022-09-11T11:38:47.663Z,99465.88
2022-09-11T11:40:33.049Z,99465.00
2022-09-11T11:42:15.952Z,99459.72
2022-09-11T11:43:49.244Z,99456.06
2022-09-11T11:45:32.374Z,99455.53
2022-09-11T11:47:07.780Z,99455.78
2022-09-11T11:48:55.425Z,99453.13
2022-09-11T11:50:49.256Z,99455.06
2022-09-11T11:54:19.737Z,99449.34
2022-09-11T11:56:00.406Z,99453.81
2022-09-11T11:57:38.945Z,99460.78
2022-09-11T11:59:52.670Z,99455.91
2022-09-11T12:01:33.997Z,99444.47
2022-09-11T12:03:22.385Z,99450.47
2022-09-11T12:05:02.598Z,99448.38
2022-09-11T12:06:35.929Z,99446.53
2022-09-11T12:08:15.606Z,99442.75
2022-09-11T12:09:52.746Z,99442.34
2022-09-11T12:11:30.574Z,99448.34
2022-09-11T12:13:07.097Z,99448.63
2022-09-11T12:14:55.813Z,99447.09
2022-09-11T12:16:32.209Z,99446.41
2022-09-11T12:18:16.474Z,99444.69
2022-09-11T12:20:13.468Z,99439.13
2022-09-11T12:21:54.954Z,99449.88
2022-09-11T12:23:33.027Z,99436.03
2022-09-11T12:25:30.503Z,99440.06
2022-09-11T12:27:36.663Z,99434.63
2022-09-11T12:29:20.544Z,99433.94
2022-09-11T12:31:07.059Z,99433.38
2022-09-11T12:33:01.547Z,99430.75
2022-09-11T12:34:39.604Z,99438.56
2022-09-11T12:36:14.788Z,99427.97
2022-09-11T12:37:54.937Z,99426.72
2022-09-11T12:39:37.418Z,99427.81
2022-09-11T12:41:23.257Z,99425.16
2022-09-11T12:42:58.596Z,99416.94
2022-09-11T12:44:53.433Z,99421.41
2022-09-11T12:46:28.811Z,99428.13
2022-09-11T12:48:06.733Z,99421.03
2022-09-11T12:49:40.354Z,99419.47
2022-09-11T12:51:50.344Z,99416.53
2022-09-11T12:53:34.917Z,99417.25
2022-09-11T12:55:36.604Z,99416.94
2022-09-11T12:57:15.544Z,99414.84
2022-09-11T12:59:12.679Z,99412.59
2022-09-11T13:00:48.294Z,99413.59
2022-09-11T13:02:47.162Z,99413.41
2022-09-11T13:04:27.822Z,99404.22
2022-09-11T13:06:08.432Z,99407.72
2022-09-11T13:07:46.913Z,99406.88
2022-09-11T13:09:22.029Z,99407.16
2022-09-11T13:10:54.438Z,99407.16
2022-09-11T13:12:26.572Z,99400.19
2022-09-11T13:14:00.416Z,99399.75
2022-09-11T13:15:38.096Z,99400.69
2022-09-11T13:17:26.486Z,99397.31
2022-09-11T13:19:10.753Z,99395.91
2022-09-11T13:20:43.106Z,99396.88
2022-09-11T13:22:31.456Z,99392.84
2022-09-11T13:24:03.934Z,99393.41
2022-09-11T13:25:41.118Z,99390.59
2022-09-11T13:27:25.015Z,99383.59
2022-09-11T13:28:59.754Z,99392.00
2022-09-11T13:30:32.123Z,99380.41
2022-09-11T13:32:11.968Z,99385.81
2022-09-11T13:33:49.671Z,99381.88
2022-09-11T13:35:26.265Z,99379.78
2022-09-11T13:36:59.062Z,99386.06
2022-09-11T13:38:34.730Z,99374.34
2022-09-11T13:40:11.734Z,99381.44
2022-09-11T13:41:44.858Z,99382.31
2022-09-11T13:43:17.972Z,99375.13
2022-09-11T13:44:52.609Z,99377.97
2022-09-11T13:46:32.323Z,99373.75
2022-09-11T13:48:14.539Z,99376.03
2022-09-11T13:49:47.412Z,99371.00
2022-09-11T13:51:25.777Z,99369.91
2022-09-11T13:52:58.247Z,99369.25
2022-09-11T13:55:05.019Z,99364.09
2022-09-11T13:56:38.825Z,99370.84
2022-09-11T13:58:23.681Z,99370.28
2022-09-11T14:00:00.653Z,99363.72
2022-09-11T14:01:34.211Z,99363.72
2022-09-11T14:03:29.686Z,99360.50
2022-09-11T14:05:09.782Z,99361.34
2022-09-11T14:06:46.555Z,99369.59
2022-09-11T14:08:25.015Z,99361.50
2022-09-11T14:09:58.787Z,99361.34
2022-09-11T14:11:32.406Z,99356.72
2022-09-11T14:13:17.408Z,99362.97
2022-09-11T14:32:33.269Z,99351.69
2022-09-11T14:34:16.400Z,99350.56
2022-09-11T14:35:49.109Z,99355.03
2022-09-11T14:37:22.238Z,99352.38
2022-09-11T14:38:54.877Z,99350.84
2022-09-11T14:40:27.594Z,99345.13
2022-09-11T14:42:00.394Z,99339.13
2022-09-11T14:43:34.117Z,99339.13
2022-09-11T14:45:20.184Z,99337.44
2022-09-11T14:46:53.215Z,99334.78
2022-09-11T14:48:26.965Z,99327.84
2022-09-11T14:49:59.243Z,99332.03
2022-09-11T14:51:32.180Z,99331.03
2022-09-11T14:53:04.760Z,99328.25
2022-09-11T14:54:38.094Z,99327.28
2022-09-11T14:56:10.801Z,99333.00
2022-09-11T14:57:43.148Z,99334.41
2022-09-11T14:59:15.664Z,99336.66
2022-09-11T15:00:48.560Z,99332.22
2022-09-11T15:02:23.847Z,99337.22
2022-09-11T15:03:57.305Z,99329.41
2022-09-11T15:05:29.722Z,99335.56
2022-09-11T15:07:02.023Z,99335.56
2022-09-11T15:08:34.364Z,99322.31
2022-09-11T15:10:07.205Z,99319.97
2022-09-11T15:11:40.511Z,99313.66
2022-09-11T15:13:13.760Z,99310.88
2022-09-11T15:14:56.162Z,99306.53
2022-09-11T15:16:29.482Z,99308.81
2022-09-11T15:18:01.840Z,99313.78
2022-09-11T15:19:38.503Z,99308.78
2022-09-11T15:21:10.779Z,99310.47
2022-09-11T15:22:43.177Z,99307.38
2022-09-11T15:24:15.866Z,99308.38
2022-09-11T15:25:48.179Z,99311.28
2022-09-11T15:27:20.586Z,99309.03
2022-09-11T15:28:53.923Z,99311.09
2022-09-11T15:30:28.154Z,99316.69
2022-09-11T15:32:02.450Z,99316.13
2022-09-11T15:33:34.828Z,99329.50
2022-09-11T15:35:08.502Z,99324.59
2022-09-11T15:36:41.921Z,99327.25
2022-09-11T15:38:14.335Z,99321.53
2022-09-11T15:39:46.712Z,99318.72
2022-09-11T15:41:22.508Z,99318.09
2022-09-11T15:42:57.178Z,99328.00
2022-09-11T15:44:29.608Z,99324.47
2022-09-11T15:46:11.753Z,99326.41
2022-09-11T15:47:44.867Z,99323.56
2022-09-11T15:49:17.450Z,99326.09
2022-09-11T15:51:00.511Z,99338.75
2022-09-11T15:52:36.863Z,99346.38
2022-09-11T15:54:09.903Z,99344.66
2022-09-11T15:55:42.206Z,99352.84
2022-09-11T15:57:14.495Z,99348.91
2022-09-11T15:58:48.208Z,99349.28
2022-09-11T16:00:20.547Z,99344.50
2022-09-11T16:01:53.091Z,99338.06
2022-09-11T16:03:25.947Z,99348.03
2022-09-11T16:04:58.242Z,99347.00
2022-09-11T16:06:33.234Z,99353.25
2022-09-11T16:08:05.631Z,99353.06
2022-09-11T16:09:38.144Z,99357.75
2022-09-11T16:11:11.415Z,99361.63
2022-09-11T16:12:43.650Z,99358.88
2022-09-11T16:14:21.475Z,99361.16
2022-09-11T16:16:03.021Z,99360.59
2022-09-11T16:17:35.645Z,99360.09
2022-09-11T16:19:08.086Z,99355.06
2022-09-11T16:20:44.083Z,99357.00
2022-09-11T16:22:16.405Z,99358.94
2022-09-11T16:23:53.631Z,99360.16
2022-09-11T16:25:28.493Z,99359.53
2022-09-11T16:27:02.036Z,99367.59
2022-09-11T16:28:36.010Z,99371.22
2022-09-11T16:30:32.592Z,99373.97
2022-09-11T16:32:01.746Z,99371.72
2022-09-11T16:33:37.444Z,99364.63
2022-09-11T16:35:13.790Z,99368.59
2022-09-11T16:36:46.703Z,99369.78
2022-09-11T16:38:19.057Z,99370.97
2022-09-11T16:39:51.492Z,99372.06
2022-09-11T16:41:24.480Z,99374.84
2022-09-11T16:42:56.924Z,99369.19
2022-09-11T16:44:29.638Z,99370.16
2022-09-11T16:46:02.594Z,99374.13
2022-09-11T16:47:35.248Z,99384.06
2022-09-11T16:49:07.547Z,99380.72
2022-09-11T16:50:39.948Z,99382.63
2022-09-11T16:52:12.665Z,99392.38
2022-09-11T16:53:45.457Z,99395.28
2022-09-11T16:55:17.829Z,99398.03
2022-09-11T16:56:50.210Z,99404.38
2022-09-11T16:58:23.491Z,99400.78
2022-09-11T16:59:55.754Z,99407.75
2022-09-11T17:01:28.610Z,99412.69
2022-09-11T17:03:00.997Z,99419.28
2022-09-11T17:04:33.335Z,99415.78
2022-09-11T17:06:07.149Z,99427.19
2022-09-11T17:07:42.406Z,99425.50
2022-09-11T17:09:14.802Z,99433.66
2022-09-11T17:10:49.779Z,99434.63
2022-09-11T17:12:22.664Z,99440.75
2022-09-11T17:13:55.200Z,99445.31
2022-09-11T17:15:29.971Z,99446.25
2022-09-11T17:17:02.243Z,99451.28
2022-09-11T17:18:34.755Z,99454.03
2022-09-11T17:20:09.819Z,99463.13
2022-09-11T17:21:42.299Z,99465.41
2022-09-11T17:23:14.499Z,99474.09
2022-09-11T17:24:46.972Z,99467.28
2022-09-11T17:26:19.545Z,99473.84
2022-09-11T17:29:24.715Z,99478.97
2022-09-11T17:31:01.651Z,99490.09
2022-09-11T17:32:33.937Z,99482.63
2022-09-11T17:34:06.257Z,99485.47
2022-09-11T17:35:39.748Z,99472.63
2022-09-11T17:37:12.098Z,99479.69
2022-09-11T17:38:46.322Z,99486.88
2022-09-11T17:40:18.901Z,99489.97
2022-09-11T17:41:51.267Z,99500.63
2022-09-11T17:43:23.555Z,99501.69
2022-09-11T17:44:58.787Z,99496.66
2022-09-11T17:46:31.274Z,99504.75
2022-09-11T17:48:03.893Z,99504.13
2022-09-11T17:49:36.447Z,99509.75
2022-09-11T17:51:23.271Z,99505.53
2022-09-11T17:52:55.548Z,99511.31
2022-09-11T17:54:28.533Z,99509.75
2022-09-11T17:56:04.874Z,99503.84
2022-09-11T17:57:37.960Z,99512.81
2022-09-11T17:59:10.472Z,99517.44
2022-09-11T18:00:42.802Z,99512.75
2022-09-11T18:03:53.187Z,99505.13
2022-09-11T18:05:26.548Z,99505.25
2022-09-11T18:06:58.900Z,99506.28
2022-09-11T18:08:33.548Z,99502.81
2022-09-11T18:10:06.590Z,99505.38
2022-09-11T18:11:43.601Z,99509.78
2022-09-11T18:13:16.604Z,99516.09
2022-09-11T18:14:49.158Z,99518.97
2022-09-11T18:16:22.517Z,99520.75
2022-09-11T18:17:55.156Z,99513.88
2022-09-11T18:19:28.467Z,99507.78
2022-09-11T18:21:07.393Z,99507.47
2022-09-11T18:22:40.004Z,99498.31
2022-09-11T18:24:15.266Z,99495.16
2022-09-11T18:25:47.513Z,99497.25
2022-09-11T18:27:20.057Z,99491.69
2022-09-11T18:29:00.307Z,99489.28
2022-09-11T18:30:32.836Z,99511.50
2022-09-11T18:32:05.450Z,99508.13
2022-09-11T18:33:37.888Z,99516.03
2022-09-11T18:35:10.435Z,99516.03
2022-09-11T18:38:15.355Z,99514.72
2022-09-11T18:39:49.179Z,99515.38
2022-09-11T18:41:23.016Z,99514.53
2022-09-11T18:42:55.463Z,99525.06
2022-09-11T18:44:27.903Z,99525.06
2022-09-11T18:46:05.160Z,99528.44
2022-09-11T18:47:38.272Z,99533.91
2022-09-11T18:49:11.745Z,99535.59
2022-09-11T18:50:44.108Z,99536.34
2022-09-11T18:52:17.088Z,99536.34
2022-09-11T18:53:54.083Z,99533.59
2022-09-11T18:55:26.832Z,99537.19
2022-09-11T18:57:00.207Z,99540.66
2022-09-11T18:58:33.671Z,99537.81
2022-09-11T19:00:07.046Z,99537.59
2022-09-11T19:01:40.356Z,99537.09
2022-09-11T19:03:12.800Z,99533.59
2022-09-11T19:04:45.620Z,99532.84
2022-09-11T19:06:21.538Z,99539.06
2022-09-11T19:07:55.681Z,99540.31
2022-09-11T19:09:29.616Z,99534.59
2022-09-11T19:11:12.705Z,99537.25
2022-09-11T19:12:48.725Z,99536.59
2022-09-11T19:14:21.541Z,99538.69
2022-09-11T19:15:57.807Z,99542.25
2022-09-11T19:17:30.129Z,99545.44
2022-09-11T19:19:03.434Z,99548.97
2022-09-11T19:20:35.677Z,99550.03
2022-09-11T19:22:07.988Z,99552.16
2022-09-11T19:23:42.960Z,99554.78
2022-09-11T19:25:15.798Z,99550.84
2022-09-11T19:26:48.164Z,99551.06
2022-09-11T19:28:20.371Z,99550.19
2022-09-11T19:29:53.984Z,99547.69
2022-09-11T19:31:30.059Z,99552.19
2022-09-11T19:33:02.442Z,99549.97
2022-09-11T19:34:38.708Z,99545.84
2022-09-11T19:36:17.179Z,99544.22
2022-09-11T19:37:49.771Z,99548.88
2022-09-11T19:39:22.349Z,99554.31
2022-09-11T19:40:54.927Z,99542.22
2022-09-11T19:42:27.887Z,99547.69
2022-09-11T19:44:02.132Z,99539.88
2022-09-11T19:45:34.813Z,99543.66
2022-09-11T19:47:07.539Z,99543.75
2022-09-11T19:48:40.768Z,99541.94
2022-09-11T19:50:17.721Z,99538.31
2022-09-11T19:51:52.425Z,99545.31
2022-09-11T19:53:24.672Z,99534.44
2022-09-11T19:54:57.041Z,99537.19
2022-09-11T19:56:29.877Z,99536.31
2022-09-11T19:58:01.890Z,99547.06
2022-09-11T19:59:34.251Z,99545.53